Rovana, California
Current Conditions -  °F | °C
As of 6:56 PM on Wednesday 22 Oct 2014 (Local Time) from KBIH Reporting Station
Clear Clear  
Wind Chill: 69°   Ceiling: Unl
Heat Index: 69°   Visibility: 10mi
Dew Point: 23°   Wind: 10mph
Humidity: 18%   Direction: 140°SE
Pressure: 30.04"   Gusts: NA
Location:  37.4772°N, 118.401°W
Report Text: KBIH 230156Z AUTO 14009KT 10SM CLR 21/M05 A3004 RMK AO2 SLP147 T02061050
Loading
Personal Weather Stations






























Interactive Weather Map
Tropical Storm Tracking
New forecast layout! Learn more

10-Day Weather Forecast

Advertisements
Track Severe Weather on mobile